Time;durP1;ratioP1;P1;durP2;ratioP2;P2;SDS_P1;SDS_P2;PMS_P1;PMS_P2;Temp;Humidity;BMP_temperature;BMP_pressure;BME280_temperature;BME280_humidity;BME280_pressure;Samples;Min_cycle;Max_cycle;Signal;HPM_P1;HPM_P2
2021/05/20 00:02:22;;;;;;;9.60;7.07;;;8.80;99.90;;;;;;5035336;28;20288;-63
2021/05/20 00:04:48;;;;;;;11.97;7.63;;;8.90;99.90;;;;;;5034602;28;20185;-63
2021/05/20 00:07:14;;;;;;;6.97;6.00;;;8.80;99.90;;;;;;5036017;28;20212;-63
2021/05/20 00:09:41;;;;;;;7.72;6.93;;;8.80;99.90;;;;;;5035997;28;20192;-64
2021/05/20 00:12:16;;;;;;;8.55;7.75;;;8.70;99.90;;;;;;5035837;28;20298;-63
2021/05/20 00:14:41;;;;;;;8.13;6.78;;;8.60;99.90;;;;;;5035629;28;20275;-63
2021/05/20 00:17:07;;;;;;;9.63;7.60;;;8.60;99.90;;;;;;5035659;28;20209;-64
2021/05/20 00:19:33;;;;;;;8.07;6.90;;;8.60;99.90;;;;;;5036084;28;20185;-63
2021/05/20 00:21:59;;;;;;;9.37;7.00;;;8.60;99.90;;;;;;5035211;28;20474;-64
2021/05/20 00:24:24;;;;;;;11.73;8.23;;;8.80;99.90;;;;;;5034912;28;20268;-64
2021/05/20 00:26:50;;;;;;;10.50;6.40;;;8.90;99.90;;;;;;5035237;28;20264;-64
2021/05/20 00:29:16;;;;;;;11.00;7.50;;;8.80;99.90;;;;;;5017655;28;20189;-64
2021/05/20 00:31:42;;;;;;;7.45;6.68;;;8.70;99.90;;;;;;5035010;28;20181;-64
2021/05/20 00:34:08;;;;;;;7.80;6.37;;;8.80;99.90;;;;;;5034557;28;20179;-64
2021/05/20 00:36:33;;;;;;;8.53;6.40;;;8.80;99.90;;;;;;5001374;28;20233;-64
2021/05/20 00:38:59;;;;;;;7.20;6.50;;;8.80;99.90;;;;;;5016742;28;20204;-64
2021/05/20 00:41:25;;;;;;;5.27;4.77;;;9.00;99.90;;;;;;5034994;28;20641;-65
2021/05/20 00:43:50;;;;;;;12.67;6.13;;;8.90;99.90;;;;;;5033916;28;20855;-63
2021/05/20 00:46:16;;;;;;;6.17;4.60;;;8.90;99.90;;;;;;5017159;28;20427;-63
2021/05/20 00:48:42;;;;;;;6.93;4.87;;;8.90;99.90;;;;;;5034374;28;20492;-63
2021/05/20 00:51:08;;;;;;;6.20;5.20;;;9.00;99.90;;;;;;5034505;28;20181;-65
2021/05/20 00:53:34;;;;;;;10.17;5.10;;;9.10;99.90;;;;;;5034409;28;20896;-63
2021/05/20 00:55:59;;;;;;;6.40;5.53;;;9.30;99.90;;;;;;5016687;28;20207;-65
2021/05/20 00:58:25;;;;;;;6.07;5.10;;;9.50;99.90;;;;;;5034465;28;20185;-65
2021/05/20 01:00:54;;;;;;;6.07;5.03;;;9.60;99.90;;;;;;5034436;28;20177;-65
2021/05/20 01:03:20;;;;;;;4.60;4.20;;;9.60;99.90;;;;;;5034019;28;20927;-65
2021/05/20 01:05:45;;;;;;;8.45;5.07;;;9.40;99.90;;;;;;5033774;28;20184;-65
2021/05/20 01:08:11;;;;;;;4.53;4.17;;;9.50;99.90;;;;;;5034441;28;20268;-65
2021/05/20 01:10:37;;;;;;;5.80;4.73;;;9.50;99.90;;;;;;5034198;28;20504;-64
2021/05/20 01:13:02;;;;;;;5.03;4.00;;;9.50;99.90;;;;;;5034157;28;20188;-62
2021/05/20 01:15:32;;;;;;;4.27;3.87;;;9.50;99.90;;;;;;5033456;28;20248;-64
2021/05/20 01:18:00;;;;;;;4.50;3.83;;;9.60;99.90;;;;;;5034320;28;20284;-64
2021/05/20 01:20:27;;;;;;;3.92;3.47;;;9.60;99.90;;;;;;5034066;28;20239;-65
2021/05/20 01:23:01;;;;;;;3.50;3.20;;;9.80;99.90;;;;;;5033962;28;20613;-65
2021/05/20 01:25:27;;;;;;;3.30;3.00;;;9.80;99.90;;;;;;5033316;28;20264;-65
2021/05/20 01:27:53;;;;;;;5.03;3.77;;;9.60;99.90;;;;;;5016437;28;20217;-62
2021/05/20 01:30:19;;;;;;;3.95;3.47;;;9.70;99.90;;;;;;5033632;28;20178;-62
2021/05/20 01:32:45;;;;;;;6.93;3.57;;;9.90;99.90;;;;;;5033668;28;20256;-65
2021/05/20 01:35:11;;;;;;;3.33;3.03;;;10.10;99.90;;;;;;5033163;28;20494;-65
2021/05/20 01:37:36;;;;;;;3.35;2.85;;;10.00;69.00;;;;;;5033295;28;20181;-65
2021/05/20 01:40:02;;;;;;;3.80;2.97;;;10.00;47.30;;;;;;5035650;28;20189;-66
2021/05/20 01:42:28;;;;;;;4.37;3.00;;;9.90;35.30;;;;;;5036606;28;20202;-66
2021/05/20 01:44:54;;;;;;;3.77;2.80;;;10.00;35.20;;;;;;5036445;28;20451;-66
2021/05/20 01:47:19;;;;;;;3.13;2.90;;;10.10;1.00;;;;;;5036925;28;20521;-66
2021/05/20 01:49:51;;;;;;;3.80;3.10;;;10.10;1.00;;;;;;5035705;28;20208;-66
2021/05/20 01:52:17;;;;;;;6.05;3.50;;;10.10;1.00;;;;;;5036363;28;20531;-66
2021/05/20 01:54:43;;;;;;;4.25;3.10;;;9.90;1.00;;;;;;5035326;28;20185;-66
2021/05/20 01:57:09;;;;;;;3.40;3.10;;;9.80;16.20;;;;;;5035805;28;20189;-66
2021/05/20 01:59:34;;;;;;;3.73;3.37;;;9.80;18.00;;;;;;5035803;28;20275;-66
2021/05/20 02:02:00;;;;;;;3.20;2.90;;;9.80;14.30;;;;;;5036088;28;20209;-68
2021/05/20 02:04:25;;;;;;;3.40;3.10;;;9.90;4.70;;;;;;5035253;28;20226;-66
2021/05/20 02:06:51;;;;;;;3.40;3.10;;;9.90;1.00;;;;;;5035744;28;20174;-66
2021/05/20 02:09:16;;;;;;;3.87;3.57;;;9.90;1.00;;;;;;5035402;28;20247;-66
2021/05/20 02:11:42;;;;;;;4.10;3.60;;;10.00;1.00;;;;;;5035765;28;20201;-65
2021/05/20 02:14:07;;;;;;;2.80;2.60;;;10.10;1.00;;;;;;5032346;28;20188;-65
2021/05/20 02:16:33;;;;;;;4.20;3.10;;;10.00;1.00;;;;;;5016668;28;20484;-66
2021/05/20 02:18:59;;;;;;;5.27;3.40;;;9.90;1.00;;;;;;5035998;28;20564;-66
2021/05/20 02:21:24;;;;;;;4.30;3.90;;;10.00;1.00;;;;;;5035674;28;20424;-66
2021/05/20 02:23:50;;;;;;;3.27;2.97;;;9.90;1.00;;;;;;5035593;28;20213;-66
2021/05/20 02:26:16;;;;;;;3.90;3.50;;;9.90;1.00;;;;;;5036810;28;20180;-65
2021/05/20 02:28:42;;;;;;;3.08;2.78;;;10.00;1.00;;;;;;5036044;28;20173;-66
2021/05/20 02:31:08;;;;;;;3.33;3.03;;;10.10;1.00;;;;;;5033666;28;20219;-66
2021/05/20 02:33:33;;;;;;;3.80;3.50;;;10.30;1.00;;;;;;5036364;28;20496;-66
2021/05/20 02:35:59;;;;;;;6.50;3.70;;;10.00;1.00;;;;;;5035521;28;20631;-66
2021/05/20 02:38:24;;;;;;;5.13;3.70;;;9.90;1.00;;;;;;5035906;28;20181;-68
2021/05/20 02:40:50;;;;;;;4.57;3.30;;;9.60;1.00;;;;;;5035837;28;20231;-66
2021/05/20 02:43:15;;;;;;;4.23;3.40;;;9.50;37.80;;;;;;5015880;28;20568;-66
2021/05/20 02:45:41;;;;;;;4.40;4.00;;;9.50;57.00;;;;;;5014710;28;20630;-67
2021/05/20 02:48:07;;;;;;;3.80;3.40;;;9.80;59.90;;;;;;5032686;28;20182;-66
2021/05/20 02:50:32;;;;;;;3.40;3.10;;;9.90;24.30;;;;;;5032968;28;20184;-65
2021/05/20 02:53:01;;;;;;;3.33;3.07;;;10.00;7.40;;;;;;5032693;28;20964;-66
2021/05/20 02:55:27;;;;;;;4.75;4.35;;;10.10;1.00;;;;;;5032549;28;20174;-66
2021/05/20 02:57:55;;;;;;;4.25;3.47;;;10.10;1.00;;;;;;5032665;28;20192;-66
2021/05/20 03:00:22;;;;;;;4.25;3.45;;;10.10;1.00;;;;;;5032916;28;20191;-65
2021/05/20 03:02:48;;;;;;;7.30;3.78;;;10.10;1.00;;;;;;5036529;28;20212;-66
2021/05/20 03:05:14;;;;;;;4.80;4.30;;;10.10;1.00;;;;;;5035955;28;20203;-66
2021/05/20 03:07:40;;;;;;;4.57;4.13;;;10.10;1.00;;;;;;5036424;28;20188;-66
2021/05/20 03:10:08;;;;;;;4.47;4.07;;;10.10;1.00;;;;;;5036222;28;20181;-68
2021/05/20 03:12:34;;;;;;;4.38;3.97;;;10.10;1.00;;;;;;5036431;28;20180;-66
2021/05/20 03:15:00;;;;;;;4.60;4.20;;;10.20;1.00;;;;;;5034610;28;20192;-66
2021/05/20 03:17:26;;;;;;;4.10;3.60;;;10.20;1.00;;;;;;5036143;28;20193;-67
2021/05/20 03:19:51;;;;;;;5.20;4.70;;;10.40;1.00;;;;;;5036188;28;20495;-67
2021/05/20 03:22:17;;;;;;;12.70;4.40;;;10.50;1.00;;;;;;5036329;28;20558;-66
2021/05/20 03:24:43;;;;;;;4.37;3.57;;;10.50;1.00;;;;;;5035912;28;20285;-67
2021/05/20 03:27:09;;;;;;;4.00;3.70;;;10.50;1.00;;;;;;5036302;28;20231;-67
2021/05/20 03:29:34;;;;;;;6.90;4.50;;;10.50;1.00;;;;;;5035916;28;20880;-67
2021/05/20 03:32:00;;;;;;;6.80;5.30;;;10.40;1.00;;;;;;5036143;28;20271;-67
2021/05/20 03:34:25;;;;;;;5.23;4.73;;;10.40;1.00;;;;;;5035505;28;20186;-67
2021/05/20 03:36:51;;;;;;;5.10;4.70;;;10.40;1.00;;;;;;5035745;28;20223;-67
2021/05/20 03:39:17;;;;;;;6.37;5.00;;;10.60;1.00;;;;;;5035903;28;20177;-67
2021/05/20 03:41:42;;;;;;;6.90;6.20;;;10.60;1.00;;;;;;5035976;28;20211;-66
2021/05/20 03:44:08;;;;;;;7.67;5.87;;;10.40;1.00;;;;;;5017833;28;20427;-66
2021/05/20 03:46:33;;;;;;;8.23;6.53;;;10.30;1.00;;;;;;5035728;28;20247;-66
2021/05/20 03:48:59;;;;;;;7.70;6.27;;;10.20;17.10;;;;;;5018135;28;20611;-66
2021/05/20 03:51:25;;;;;;;7.73;6.80;;;10.20;26.30;;;;;;5035885;28;20205;-66
2021/05/20 03:53:50;;;;;;;8.10;6.60;;;10.20;47.40;;;;;;5035281;28;20637;-66
2021/05/20 03:56:16;;;;;;;9.40;7.20;;;10.10;92.40;;;;;;5035696;28;20561;-66
2021/05/20 03:58:42;;;;;;;9.17;7.63;;;10.10;99.90;;;;;;5035494;28;20542;-66
2021/05/20 04:01:07;;;;;;;10.40;7.73;;;10.20;99.90;;;;;;5036019;28;20420;-66
2021/05/20 04:03:36;;;;;;;9.30;8.30;;;10.30;99.90;;;;;;5035745;28;20204;-66
2021/05/20 04:06:03;;;;;;;11.70;8.63;;;10.30;99.90;;;;;;5035864;28;20191;-66
2021/05/20 04:08:35;;;;;;;13.43;9.52;;;10.40;99.90;;;;;;5035893;28;20177;-66
2021/05/20 04:11:02;;;;;;;9.25;7.90;;;11.20;99.90;;;;;;5036365;28;20535;-67
2021/05/20 04:13:35;;;;;;;8.73;7.75;;;12.10;1.00;;;;;;5036514;28;20645;-67
2021/05/20 04:16:01;;;;;;;10.38;7.80;;;12.50;1.00;;;;;;5038871;28;20250;-67
2021/05/20 04:18:27;;;;;;;11.50;7.35;;;13.20;1.00;;;;;;5038278;28;20243;-67
2021/05/20 04:20:53;;;;;;;8.43;7.63;;;14.20;1.00;;;;;;5037254;28;20507;-67
2021/05/20 04:23:19;;;;;;;7.33;6.33;;;15.50;99.90;;;;;;5036288;28;20209;-67
2021/05/20 04:25:45;;;;;;;196.35;41.28;;;16.60;99.90;;;;;;5037433;28;20447;-66
2021/05/20 04:28:12;;;;;;;33.83;13.00;;;16.80;21.00;;;;;;5036840;28;20188;-67
2021/05/20 04:30:38;;;;;;;8.05;6.35;;;17.50;99.90;;;;;;5037524;28;20255;-67
2021/05/20 04:33:04;;;;;;;7.38;6.55;;;17.90;99.90;;;;;;5036199;28;20189;-67
2021/05/20 04:35:31;;;;;;;7.07;6.25;;;17.10;99.90;;;;;;5034983;28;20205;-66
2021/05/20 04:37:57;;;;;;;8.05;7.30;;;16.60;99.90;;;;;;5035147;28;20680;-66
2021/05/20 04:40:22;;;;;;;7.63;6.67;;;15.00;99.90;;;;;;5034826;28;20182;-66
2021/05/20 04:42:48;;;;;;;7.87;7.03;;;13.80;99.90;;;;;;5034976;28;20716;-66
2021/05/20 04:45:14;;;;;;;7.40;6.70;;;13.10;1.00;;;;;;5034627;28;20200;-66
2021/05/20 04:47:39;;;;;;;8.60;7.20;;;12.70;97.20;;;;;;5034664;28;20637;-66
2021/05/20 04:50:06;;;;;;;7.70;6.80;;;12.50;1.00;;;;;;5034897;28;20178;-66
2021/05/20 04:52:31;;;;;;;7.60;6.80;;;12.10;23.00;;;;;;5034993;28;20174;-66
2021/05/20 04:54:57;;;;;;;7.07;6.30;;;11.60;99.90;;;;;;5034782;28;20177;-66
2021/05/20 04:57:22;;;;;;;8.63;7.70;;;11.50;1.00;;;;;;5035169;28;20196;-66
2021/05/20 04:59:48;;;;;;;7.93;6.77;;;12.10;1.00;;;;;;5035475;28;20596;-66
2021/05/20 05:02:14;;;;;;;10.00;7.90;;;12.50;99.90;;;;;;5035644;28;20499;-66
2021/05/20 05:04:39;;;;;;;7.70;7.00;;;12.50;62.00;;;;;;5035004;28;20178;-66
2021/05/20 05:07:05;;;;;;;8.20;7.00;;;12.20;99.90;;;;;;5035145;28;20212;-66
2021/05/20 05:09:30;;;;;;;8.00;6.73;;;13.20;1.00;;;;;;5035137;28;20182;-66
2021/05/20 05:11:56;;;;;;;7.20;6.50;;;14.80;1.00;;;;;;5035552;28;20199;-66
2021/05/20 05:14:24;;;;;;;7.17;6.37;;;16.00;99.90;;;;;;5017353;28;20189;-67
2021/05/20 05:16:50;;;;;;;6.60;5.90;;;16.30;1.00;;;;;;5034811;28;20645;-67
2021/05/20 05:19:16;;;;;;;5.63;5.13;;;14.60;99.90;;;;;;5033724;28;20182;-67
2021/05/20 05:21:41;;;;;;;7.57;5.93;;;13.80;1.00;;;;;;5033845;28;20177;-67
2021/05/20 05:24:09;;;;;;;7.67;6.23;;;14.40;1.00;;;;;;5016154;28;20265;-67
2021/05/20 05:26:34;;;;;;;6.20;5.60;;;14.20;99.90;;;;;;5033765;28;20173;-67
2021/05/20 05:29:00;;;;;;;8.20;5.80;;;13.70;1.00;;;;;;5033789;28;20499;-67
2021/05/20 05:31:26;;;;;;;6.83;6.13;;;13.80;1.00;;;;;;5033396;28;20211;-67
2021/05/20 05:33:52;;;;;;;6.10;5.50;;;13.70;1.00;;;;;;5015996;28;20595;-67
2021/05/20 05:36:18;;;;;;;9.50;6.82;;;14.40;1.00;;;;;;5033763;28;20190;-70
2021/05/20 05:38:44;;;;;;;6.33;5.60;;;15.00;25.10;;;;;;5033965;28;20500;-67
2021/05/20 05:41:09;;;;;;;5.73;4.93;;;15.80;1.00;;;;;;5033572;28;20622;-66
2021/05/20 05:43:35;;;;;;;7.50;5.40;;;16.30;1.00;;;;;;5033108;28;20673;-67
2021/05/20 05:46:01;;;;;;;7.37;4.90;;;17.40;99.90;;;;;;5015989;28;20193;-67
2021/05/20 05:48:26;;;;;;;7.00;5.50;;;18.40;99.90;;;;;;5033333;28;20188;-67
2021/05/20 05:50:55;;;;;;;6.10;5.40;;;19.10;1.00;;;;;;5033512;28;20173;-67
2021/05/20 05:53:20;;;;;;;4.53;4.13;;;19.50;1.00;;;;;;5015766;28;20189;-67
2021/05/20 05:55:46;;;;;;;9.17;7.43;;;19.40;1.00;;;;;;5033034;28;20511;-67
2021/05/20 05:58:11;;;;;;;6.50;5.50;;;18.10;99.90;;;;;;5033396;28;20177;-67
2021/05/20 06:00:38;;;;;;;6.27;5.63;;;17.70;99.90;;;;;;5033339;28;20209;-67
2021/05/20 06:03:04;;;;;;;4.90;4.50;;;18.30;99.90;;;;;;5033273;28;20292;-68
2021/05/20 06:05:30;;;;;;;6.30;5.23;;;17.00;1.00;;;;;;5033010;28;20569;-67
2021/05/20 06:07:55;;;;;;;5.20;4.80;;;16.00;99.90;;;;;;5033337;28;20223;-67
2021/05/20 06:10:23;;;;;;;6.50;5.90;;;16.10;1.00;;;;;;5033008;28;20189;-67
2021/05/20 06:12:49;;;;;;;7.23;5.50;;;17.00;1.00;;;;;;5033078;28;20181;-67
2021/05/20 06:15:14;;;;;;;6.93;5.70;;;16.80;1.00;;;;;;5032781;28;20432;-67
2021/05/20 06:17:40;;;;;;;6.70;6.00;;;15.50;2.40;;;;;;5033047;28;20178;-67
2021/05/20 06:20:07;;;;;;;8.60;5.33;;;16.00;1.00;;;;;;5033085;28;20181;-67
2021/05/20 06:22:33;;;;;;;6.20;5.60;;;18.20;99.90;;;;;;5032933;28;20205;-67
2021/05/20 06:24:58;;;;;;;6.10;5.50;;;19.60;1.00;;;;;;5032187;28;20428;-67
2021/05/20 06:27:26;;;;;;;6.20;5.70;;;19.80;1.00;;;;;;5033304;28;20181;-68
2021/05/20 06:29:55;;;;;;;7.07;4.90;;;19.50;1.00;;;;;;5033208;28;20528;-68
2021/05/20 06:32:21;;;;;;;5.90;5.30;;;19.30;9.50;;;;;;5032353;28;20443;-67
2021/05/20 06:34:46;;;;;;;6.00;5.40;;;17.50;99.90;;;;;;5032156;28;20428;-67
2021/05/20 06:37:12;;;;;;;6.33;5.10;;;17.50;99.90;;;;;;5032367;28;20178;-67
2021/05/20 06:39:39;;;;;;;6.13;5.53;;;16.60;1.00;;;;;;5032627;28;20216;-68
2021/05/20 06:42:08;;;;;;;5.50;5.00;;;16.10;1.00;;;;;;5032607;28;20197;-67
2021/05/20 06:44:35;;;;;;;7.47;6.13;;;16.30;74.60;;;;;;5032735;28;20434;-67
2021/05/20 06:47:07;;;;;;;6.50;5.90;;;16.00;1.00;;;;;;5032689;28;20452;-67
2021/05/20 06:49:33;;;;;;;11.35;6.68;;;16.00;1.00;;;;;;5032663;28;20963;-67
2021/05/20 06:51:59;;;;;;;6.60;6.00;;;17.00;1.00;;;;;;5032614;28;20185;-67
2021/05/20 06:54:25;;;;;;;7.33;5.40;;;17.80;99.90;;;;;;5032098;28;20460;-67
2021/05/20 06:56:57;;;;;;;6.57;5.17;;;19.40;1.00;;;;;;5032589;28;20831;-67
2021/05/20 07:02:07;;;;;;;6.60;5.37;;;19.80;1.00;;;;;;5035544;28;20501;-67
2021/05/20 07:04:33;;;;;;;6.00;5.13;;;17.70;99.90;;;;;;5051705;28;20514;-67
2021/05/20 07:07:06;;;;;;;9.60;5.50;;;19.00;99.90;;;;;;5052583;28;20526;-67
2021/05/20 07:09:37;;;;;;;6.40;5.53;;;22.20;1.00;;;;;;5052357;28;20459;-67
2021/05/20 07:12:03;;;;;;;5.63;5.13;;;21.90;1.00;;;;;;5034919;28;20505;-68
2021/05/20 07:14:29;;;;;;;6.67;5.97;;;20.30;1.00;;;;;;5052012;28;20435;-66
2021/05/20 07:16:54;;;;;;;6.17;5.67;;;18.60;32.00;;;;;;5052283;28;20469;-67
2021/05/20 07:19:26;;;;;;;8.80;6.13;;;17.20;99.90;;;;;;5052139;28;20640;-67
2021/05/20 07:21:52;;;;;;;7.00;5.87;;;16.10;99.90;;;;;;5050214;28;20189;-67
2021/05/20 07:24:18;;;;;;;6.40;5.70;;;15.70;99.90;;;;;;5048891;28;20431;-67
2021/05/20 07:26:44;;;;;;;6.70;6.10;;;17.50;1.00;;;;;;5051201;28;20465;-67
2021/05/20 07:29:10;;;;;;;5.90;5.30;;;20.50;1.00;;;;;;5051425;28;20466;-68
2021/05/20 07:31:36;;;;;;;5.17;3.83;;;19.60;1.00;;;;;;5052197;28;20184;-69
2021/05/20 07:34:02;;;;;;;4.60;3.40;;;19.60;1.00;;;;;;5051810;28;20431;-67
2021/05/20 07:36:28;;;;;;;4.60;4.20;;;18.50;1.00;;;;;;5051860;28;20467;-68
2021/05/20 07:38:53;;;;;;;4.50;3.83;;;16.50;99.90;;;;;;5051891;28;20446;-71
2021/05/20 07:41:19;;;;;;;4.20;3.80;;;16.20;1.00;;;;;;5049505;28;20188;-68
2021/05/20 07:43:45;;;;;;;3.57;2.80;;;16.20;1.00;;;;;;5051330;28;20217;-68
2021/05/20 07:46:14;;;;;;;3.60;3.30;;;15.80;1.00;;;;;;5051957;28;20185;-67
2021/05/20 07:48:39;;;;;;;5.00;3.10;;;17.20;99.90;;;;;;5053429;28;20481;-67
2021/05/20 07:51:07;;;;;;;4.43;2.80;;;17.30;90.40;;;;;;5055580;28;20435;-67
2021/05/20 07:53:33;;;;;;;5.00;3.20;;;17.00;99.90;;;;;;5037844;28;20185;-67
2021/05/20 07:56:00;;;;;;;4.97;3.20;;;16.80;99.90;;;;;;5054912;28;20457;-68
2021/05/20 07:58:25;;;;;;;4.13;3.00;;;16.70;99.90;;;;;;5055613;28;20818;-68
2021/05/20 08:00:51;;;;;;;4.17;3.00;;;16.50;99.90;;;;;;5053356;28;20895;-67
2021/05/20 08:05:54;;;;;;;3.20;2.40;;;16.10;99.90;;;;;;5051219;28;20963;-67
2021/05/20 08:10:55;;;;;;;3.30;2.97;;;15.00;1.00;;;;;;5047816;28;20276;-67
2021/05/20 08:13:20;;;;;;;3.72;2.70;;;15.20;99.90;;;;;;5052896;28;20182;-65
2021/05/20 08:15:46;;;;;;;3.23;2.70;;;15.40;1.00;;;;;;5047677;28;20514;-65
2021/05/20 08:18:12;;;;;;;3.23;2.93;;;15.50;99.90;;;;;;5026420;28;20602;-65
2021/05/20 08:20:37;;;;;;;5.70;3.27;;;15.90;1.00;;;;;;5055391;28;20199;-66
2021/05/20 08:23:03;;;;;;;2.77;2.57;;;15.90;1.00;;;;;;5054602;28;20524;-66
2021/05/20 08:25:29;;;;;;;3.53;3.23;;;15.90;1.00;;;;;;5054510;28;20211;-66
2021/05/20 08:27:54;;;;;;;3.40;3.10;;;15.90;1.00;;;;;;5054917;28;20176;-66
2021/05/20 08:30:20;;;;;;;3.70;2.77;;;15.80;1.00;;;;;;5050929;28;20178;-66
2021/05/20 08:32:47;;;;;;;3.22;2.92;;;15.60;1.00;;;;;;5034589;28;20629;-66
2021/05/20 08:35:13;;;;;;;3.37;2.77;;;15.70;1.00;;;;;;5038936;28;20185;-67
2021/05/20 08:37:39;;;;;;;3.95;3.00;;;15.80;1.00;;;;;;5055143;28;20772;-66
2021/05/20 08:40:07;;;;;;;3.93;3.07;;;16.30;1.00;;;;;;5054698;28;20183;-67
2021/05/20 08:42:33;;;;;;;4.30;3.30;;;16.80;99.90;;;;;;5054471;28;20464;-69
2021/05/20 08:45:15;;;;;;;3.03;2.83;;;16.30;99.90;;;;;;5053779;28;20419;-66
2021/05/20 08:47:42;;;;;;;6.10;3.47;;;15.80;1.00;;;;;;5054186;28;20180;-66
2021/05/20 08:50:09;;;;;;;2.70;2.50;;;16.00;99.90;;;;;;5054312;28;20351;-65
2021/05/20 08:52:37;;;;;;;3.50;2.93;;;16.10;99.90;;;;;;5054193;28;20181;-66
2021/05/20 08:55:04;;;;;;;4.37;2.77;;;16.10;99.90;;;;;;5036270;28;20438;-65
2021/05/20 08:57:30;;;;;;;5.30;3.27;;;16.60;99.90;;;;;;5054410;28;20435;-67
2021/05/20 08:59:55;;;;;;;3.20;2.60;;;16.40;99.90;;;;;;5053963;28;20423;-66
2021/05/20 09:02:23;;;;;;;4.53;3.50;;;16.10;1.00;;;;;;5053962;28;20671;-65
2021/05/20 09:05:00;;;;;;;3.33;2.80;;;15.90;1.00;;;;;;5053981;28;20260;-65
2021/05/20 09:07:37;;;;;;;7.25;3.20;;;15.80;1.00;;;;;;5054031;28;20181;-65
2021/05/20 09:10:10;;;;;;;3.40;2.90;;;16.20;1.00;;;;;;5043737;28;20628;-66
2021/05/20 09:12:36;;;;;;;2.30;2.10;;;16.20;99.90;;;;;;5048697;28;20202;-65
2021/05/20 09:15:12;;;;;;;2.50;2.30;;;16.40;63.00;;;;;;5052006;28;20192;-65
2021/05/20 09:17:37;;;;;;;2.67;2.47;;;16.40;99.90;;;;;;5052012;28;20478;-65
2021/05/20 09:20:04;;;;;;;2.80;2.33;;;16.50;99.90;;;;;;5052578;28;20932;-65
2021/05/20 09:22:29;;;;;;;3.87;2.30;;;16.50;99.90;;;;;;5051964;28;20262;-65
2021/05/20 09:24:59;;;;;;;2.67;2.30;;;16.60;99.90;;;;;;5051883;28;20754;-64
2021/05/20 09:27:36;;;;;;;3.50;2.57;;;16.80;99.90;;;;;;5051987;28;20652;-66
2021/05/20 09:30:17;;;;;;;2.57;2.37;;;17.30;99.90;;;;;;5052930;28;20457;-64
2021/05/20 09:32:52;;;;;;;5.13;2.80;;;18.10;1.00;;;;;;5053569;28;20967;-67
2021/05/20 09:35:20;;;;;;;3.00;2.80;;;18.20;15.60;;;;;;5053296;28;20435;-66
2021/05/20 09:37:49;;;;;;;3.53;3.27;;;18.10;1.00;;;;;;5053278;28;20462;-66
2021/05/20 09:40:16;;;;;;;3.00;2.67;;;17.90;1.00;;;;;;5053805;28;20937;-69
2021/05/20 09:42:44;;;;;;;3.77;2.70;;;17.90;1.00;;;;;;5053719;28;20450;-66
2021/05/20 09:45:12;;;;;;;4.50;3.63;;;18.00;1.00;;;;;;5053068;28;20476;-67
2021/05/20 09:47:41;;;;;;;4.77;3.30;;;17.20;26.80;;;;;;5053097;28;20480;-66
2021/05/20 09:50:20;;;;;;;3.17;2.87;;;17.30;99.90;;;;;;5053074;28;20420;-65
2021/05/20 09:52:47;;;;;;;4.10;3.60;;;17.80;1.00;;;;;;5052927;28;20458;-65
2021/05/20 09:55:25;;;;;;;3.80;3.40;;;17.80;1.00;;;;;;5052890;28;20432;-65
2021/05/20 09:57:56;;;;;;;3.87;3.50;;;18.00;1.00;;;;;;5052899;28;20780;-64
2021/05/20 10:00:24;;;;;;;3.33;2.60;;;18.10;1.00;;;;;;5053002;28;20430;-65
2021/05/20 10:03:06;;;;;;;3.67;3.37;;;18.70;1.00;;;;;;5052746;28;20550;-65
2021/05/20 10:05:34;;;;;;;3.10;2.80;;;18.70;1.00;;;;;;5053076;28;20423;-65
2021/05/20 10:08:04;;;;;;;4.63;3.00;;;17.70;1.00;;;;;;5052947;28;20561;-66
2021/05/20 10:10:30;;;;;;;4.23;3.60;;;17.50;1.00;;;;;;5047789;28;20791;-65
2021/05/20 10:12:56;;;;;;;6.70;3.80;;;17.10;46.30;;;;;;5052579;28;20431;-64
2021/05/20 10:15:23;;;;;;;4.33;3.27;;;17.70;24.50;;;;;;5052693;28;20903;-66
2021/05/20 10:17:51;;;;;;;3.50;3.20;;;18.00;1.00;;;;;;5052594;28;20180;-67
2021/05/20 10:20:21;;;;;;;4.07;3.30;;;18.50;1.00;;;;;;5052769;28;20438;-64
2021/05/20 10:22:49;;;;;;;4.90;2.97;;;17.90;1.00;;;;;;5038368;28;20513;-64
2021/05/20 10:25:15;;;;;;;3.10;2.80;;;17.60;1.00;;;;;;5032351;28;20904;-65
2021/05/20 10:27:42;;;;;;;2.63;2.40;;;17.10;4.10;;;;;;5033149;28;20424;-65
2021/05/20 10:30:10;;;;;;;3.40;1.97;;;17.10;1.00;;;;;;5031985;28;20944;-66
2021/05/20 10:32:38;;;;;;;3.37;3.07;;;17.30;1.00;;;;;;5033021;28;20455;-66
2021/05/20 10:35:09;;;;;;;3.90;3.23;;;17.10;1.00;;;;;;5032108;28;20493;-66
2021/05/20 10:37:39;;;;;;;4.33;2.73;;;16.70;41.40;;;;;;5032686;28;20800;-68
2021/05/20 10:40:09;;;;;;;3.27;2.90;;;16.70;42.50;;;;;;5032457;28;20435;-67
2021/05/20 10:42:42;;;;;;;3.07;2.77;;;16.70;99.90;;;;;;5032550;28;20948;-67
2021/05/20 10:45:18;;;;;;;2.63;2.43;;;16.60;99.90;;;;;;5032278;28;20761;-67
2021/05/20 10:48:02;;;;;;;2.30;2.10;;;16.80;99.90;;;;;;5033565;28;20510;-67
2021/05/20 10:50:57;;;;;;;3.67;2.20;;;17.30;1.00;;;;;;5034896;28;20450;-67
2021/05/20 10:53:37;;;;;;;3.80;2.33;;;17.60;1.00;;;;;;5051908;28;20920;-67
2021/05/20 10:56:12;;;;;;;4.90;2.90;;;18.10;1.00;;;;;;5034563;28;20423;-67
2021/05/20 10:58:38;;;;;;;2.60;2.20;;;18.20;1.00;;;;;;5052330;28;20431;-66
2021/05/20 11:01:04;;;;;;;3.20;2.90;;;18.30;1.00;;;;;;5052761;28;20783;-67
2021/05/20 11:03:49;;;;;;;5.60;2.77;;;18.30;1.00;;;;;;5052208;28;20538;-67
2021/05/20 11:06:16;;;;;;;2.70;2.50;;;18.80;1.00;;;;;;5052216;28;20434;-69
2021/05/20 11:08:44;;;;;;;3.57;2.20;;;19.30;1.00;;;;;;5051973;28;20423;-69
2021/05/20 11:11:43;;;;;;;3.17;2.50;;;19.40;1.00;;;;;;5042855;28;20973;-67
2021/05/20 11:14:15;;;;;;;2.70;1.93;;;19.30;1.00;;;;;;5051508;28;20483;-68
2021/05/20 11:16:44;;;;;;;3.27;2.10;;;19.30;1.00;;;;;;5034747;28;20432;-68
2021/05/20 11:19:19;;;;;;;3.30;2.67;;;19.00;1.00;;;;;;5052085;28;20764;-67
2021/05/20 11:22:09;;;;;;;8.30;3.67;;;19.00;1.00;;;;;;5035661;28;20480;-67
2021/05/20 11:24:41;;;;;;;4.33;2.90;;;19.20;1.00;;;;;;5055857;28;20427;-67
2021/05/20 11:27:09;;;;;;;4.13;2.30;;;18.80;1.00;;;;;;5055919;28;20419;-67
2021/05/20 11:29:37;;;;;;;2.10;2.00;;;18.90;1.00;;;;;;5055670;28;20438;-65
2021/05/20 11:35:15;;;;;;;2.60;1.50;;;18.60;1.00;;;;;;5055591;28;20514;-66
2021/05/20 11:37:42;;;;;;;2.17;1.60;;;18.50;1.00;;;;;;5055826;28;20789;-68
2021/05/20 11:40:28;;;;;;;3.43;2.17;;;17.90;1.00;;;;;;5056030;28;20450;-69
2021/05/20 11:42:53;;;;;;;2.40;1.73;;;17.90;1.00;;;;;;5038782;28;20524;-68
2021/05/20 11:45:24;;;;;;;1.20;1.10;;;18.00;1.00;;;;;;5055398;28;20419;-69
2021/05/20 11:47:55;;;;;;;1.57;1.20;;;18.00;1.00;;;;;;5055465;28;20185;-66
2021/05/20 11:50:23;;;;;;;1.50;1.30;;;18.00;1.00;;;;;;5055464;28;20420;-65
2021/05/20 11:52:52;;;;;;;1.30;1.20;;;17.70;1.00;;;;;;5038123;28;20427;-66
2021/05/20 11:55:19;;;;;;;2.00;1.13;;;17.50;1.00;;;;;;5054997;28;20737;-67
2021/05/20 11:57:46;;;;;;;2.23;1.97;;;17.70;1.00;;;;;;5038320;28;20444;-66
2021/05/20 12:00:13;;;;;;;1.80;1.40;;;17.70;1.00;;;;;;5037720;28;20515;-66
2021/05/20 12:02:39;;;;;;;3.53;2.07;;;17.90;1.00;;;;;;5055715;28;20459;-65
2021/05/20 12:05:08;;;;;;;1.30;1.07;;;18.30;1.00;;;;;;5055326;28;20888;-65
2021/05/20 12:07:37;;;;;;;3.33;1.60;;;18.50;1.00;;;;;;5038080;28;20480;-65
2021/05/20 12:10:12;;;;;;;3.47;1.80;;;18.30;1.00;;;;;;5055529;28;21118;-66
2021/05/20 12:12:39;;;;;;;2.90;2.50;;;18.60;1.00;;;;;;5055833;28;20528;-64
2021/05/20 12:15:16;;;;;;;6.20;2.77;;;18.80;1.00;;;;;;5056585;28;20423;-66
2021/05/20 12:17:43;;;;;;;3.63;2.00;;;18.80;1.00;;;;;;5058484;28;20502;-68
2021/05/20 12:20:10;;;;;;;4.20;2.00;;;18.70;1.00;;;;;;5040773;28;20766;-65
2021/05/20 12:22:38;;;;;;;4.97;3.00;;;18.80;1.00;;;;;;5057896;28;20481;-65
2021/05/20 12:25:11;;;;;;;6.77;2.60;;;18.60;1.00;;;;;;5057974;28;20784;-65
2021/05/20 12:27:36;;;;;;;3.17;2.90;;;18.10;1.00;;;;;;5058455;28;20427;-67
2021/05/20 12:30:10;;;;;;;3.30;2.70;;;18.50;1.00;;;;;;5040530;28;20429;-65
2021/05/20 12:32:47;;;;;;;3.30;2.70;;;19.30;1.00;;;;;;5058124;28;20275;-65
2021/05/20 12:35:35;;;;;;;2.33;2.10;;;19.50;1.00;;;;;;5056977;28;20433;-66
2021/05/20 12:38:13;;;;;;;2.00;1.90;;;19.50;1.00;;;;;;5054758;28;20452;-67
2021/05/20 12:40:39;;;;;;;2.00;1.50;;;18.20;1.00;;;;;;5037093;28;20815;-66
2021/05/20 12:43:10;;;;;;;1.60;1.50;;;16.20;1.00;;;;;;5055435;28;20482;-66
2021/05/20 12:45:58;;;;;;;2.70;1.50;;;15.00;99.90;;;;;;5048649;28;20594;-67
2021/05/20 12:48:29;;;;;;;3.45;2.40;;;14.00;16.70;;;;;;5018170;28;20231;-66
2021/05/20 12:50:56;;;;;;;3.83;3.05;;;13.40;99.90;;;;;;5054848;28;20686;-67
2021/05/20 12:53:43;;;;;;;3.17;2.25;;;13.20;1.00;;;;;;5054637;28;20549;-67
2021/05/20 12:56:21;;;;;;;3.20;2.42;;;12.70;1.00;;;;;;5055013;28;20173;-66
2021/05/20 12:58:50;;;;;;;2.78;2.50;;;12.40;1.00;;;;;;5054773;28;20223;-67
2021/05/20 13:01:16;;;;;;;3.83;3.20;;;12.50;1.00;;;;;;5037142;28;20173;-63
2021/05/20 13:03:45;;;;;;;2.50;2.30;;;12.60;1.00;;;;;;5054696;28;20651;-67
2021/05/20 13:06:17;;;;;;;3.38;2.70;;;13.00;1.00;;;;;;5054843;28;20427;-66
2021/05/20 13:08:43;;;;;;;4.35;3.63;;;13.30;99.90;;;;;;5054627;28;20259;-65